createdAt,value
2023-03-16T04:46:04.752Z,4.40
2023-03-16T04:48:34.467Z,4.40
2023-03-16T04:51:03.751Z,4.40
2023-03-16T04:53:31.917Z,4.30
2023-03-16T04:55:59.226Z,4.30
2023-03-16T04:58:27.209Z,4.30
2023-03-16T05:00:55.298Z,4.30
2023-03-16T05:03:22.449Z,4.40
2023-03-16T05:05:49.956Z,4.30
2023-03-16T05:08:17.009Z,4.30
2023-03-16T05:10:44.753Z,4.30
2023-03-16T05:13:11.640Z,4.30
2023-03-16T05:15:38.692Z,4.20
2023-03-16T05:18:05.593Z,4.20
2023-03-16T05:20:32.473Z,4.10
2023-03-16T05:22:59.456Z,4.20
2023-03-16T05:25:26.356Z,4.20
2023-03-16T05:27:54.301Z,4.20
2023-03-16T05:30:21.545Z,4.20
2023-03-16T05:32:48.519Z,4.10
2023-03-16T05:35:15.504Z,4.20
2023-03-16T05:37:43.553Z,4.20
2023-03-16T05:40:16.998Z,4.20
2023-03-16T05:42:44.623Z,4.20
2023-03-16T05:45:12.266Z,4.20
2023-03-16T05:47:39.383Z,4.20
2023-03-16T05:50:08.930Z,4.20
2023-03-16T05:52:35.874Z,4.20
2023-03-16T05:55:02.822Z,4.10
2023-03-16T05:57:29.738Z,4.10
2023-03-16T05:59:56.622Z,4.10
2023-03-16T06:02:23.733Z,4.00
2023-03-16T06:04:50.811Z,4.00
2023-03-16T06:07:17.748Z,4.10
2023-03-16T06:09:44.638Z,4.10
2023-03-16T06:12:11.656Z,4.20
2023-03-16T06:14:38.526Z,4.20
2023-03-16T06:17:05.484Z,4.30
2023-03-16T06:19:32.826Z,4.20
2023-03-16T06:21:59.752Z,4.20
2023-03-16T06:24:26.702Z,4.10
2023-03-16T06:26:53.649Z,4.10
2023-03-16T06:29:20.666Z,4.10
2023-03-16T06:31:47.683Z,4.00
2023-03-16T06:34:14.683Z,4.10
2023-03-16T06:36:41.590Z,4.20
2023-03-16T06:39:09.440Z,4.30
2023-03-16T06:41:36.330Z,4.30
2023-03-16T06:44:03.325Z,4.30
2023-03-16T06:46:30.227Z,4.30
2023-03-16T06:48:57.094Z,4.40
2023-03-16T06:51:24.056Z,4.50
2023-03-16T06:53:51.007Z,4.60
2023-03-16T06:56:17.952Z,4.60
2023-03-16T06:58:45.070Z,4.60
2023-03-16T07:01:12.496Z,4.70
2023-03-16T07:03:39.501Z,4.80
2023-03-16T07:06:06.575Z,4.80
2023-03-16T07:08:33.506Z,4.90
2023-03-16T07:11:00.445Z,5.00
2023-03-16T07:13:27.440Z,5.00
2023-03-16T07:15:54.401Z,5.10
2023-03-16T07:18:21.334Z,5.10
2023-03-16T07:20:48.251Z,5.20
2023-03-16T07:23:15.273Z,5.30
2023-03-16T07:25:42.437Z,5.30
2023-03-16T07:28:09.351Z,5.40
2023-03-16T07:30:36.281Z,5.50
2023-03-16T07:33:03.507Z,5.60
2023-03-16T07:35:30.445Z,5.60
2023-03-16T07:37:57.717Z,5.60
2023-03-16T07:40:24.686Z,5.70
2023-03-16T07:42:51.693Z,5.80
2023-03-16T07:45:18.770Z,5.80
2023-03-16T07:47:45.739Z,5.90
2023-03-16T07:50:13.643Z,5.90
2023-03-16T07:52:40.565Z,6.00
2023-03-16T07:55:07.614Z,6.00
2023-03-16T07:57:34.570Z,6.10
2023-03-16T08:00:05.043Z,6.20
2023-03-16T08:02:32.060Z,6.20
2023-03-16T08:04:59.213Z,6.30
2023-03-16T08:07:26.166Z,6.30
2023-03-16T08:09:53.140Z,6.40
2023-03-16T08:12:20.055Z,6.40
2023-03-16T08:14:47.115Z,6.60
2023-03-16T08:17:14.208Z,6.50
2023-03-16T08:19:42.563Z,6.50
2023-03-16T08:22:09.657Z,6.60
2023-03-16T08:24:36.557Z,6.60
2023-03-16T08:27:03.584Z,6.90
2023-03-16T08:29:30.527Z,6.80
2023-03-16T08:31:57.573Z,6.90
2023-03-16T08:34:24.794Z,6.90
2023-03-16T08:36:51.824Z,7.00
2023-03-16T08:39:18.736Z,7.00
2023-03-16T08:41:47.055Z,7.10
2023-03-16T08:44:13.998Z,7.10
2023-03-16T08:46:42.228Z,7.10
2023-03-16T08:49:09.359Z,7.10
2023-03-16T08:51:36.958Z,7.20
2023-03-16T08:54:03.925Z,7.20
2023-03-16T08:56:30.914Z,7.30
2023-03-16T08:58:58.460Z,7.30
2023-03-16T09:01:25.735Z,7.40
2023-03-16T09:03:53.028Z,7.50
2023-03-16T09:06:20.151Z,7.50
2023-03-16T09:08:47.705Z,7.60
2023-03-16T09:11:16.051Z,7.70
2023-03-16T09:13:43.304Z,7.70
2023-03-16T09:16:12.006Z,7.70
2023-03-16T09:18:39.875Z,7.80
2023-03-16T09:21:08.018Z,7.90
2023-03-16T09:23:37.451Z,7.90
2023-03-16T09:26:07.486Z,8.00
2023-03-16T09:28:35.874Z,8.00
2023-03-16T09:31:03.341Z,8.10
2023-03-16T09:33:32.035Z,8.10
2023-03-16T09:35:59.606Z,8.10
2023-03-16T09:38:26.620Z,8.20
2023-03-16T09:41:01.879Z,8.20
2023-03-16T09:43:47.357Z,8.30
2023-03-16T09:46:17.300Z,8.30
2023-03-16T09:48:45.027Z,8.30
2023-03-16T09:51:20.191Z,8.30
2023-03-16T09:53:48.927Z,8.40
2023-03-16T09:56:20.260Z,8.40
2023-03-16T09:58:47.214Z,8.40
2023-03-16T10:01:14.423Z,8.50
2023-03-16T10:03:44.463Z,8.60
2023-03-16T10:06:12.471Z,8.60
2023-03-16T10:08:40.785Z,8.70
2023-03-16T10:11:10.686Z,8.80
2023-03-16T10:13:49.608Z,8.80
2023-03-16T10:16:25.591Z,8.90
2023-03-16T10:19:02.511Z,8.90
2023-03-16T10:21:30.555Z,9.00
2023-03-16T10:24:02.079Z,9.10
2023-03-16T10:26:33.906Z,9.10
2023-03-16T10:29:01.163Z,9.10
2023-03-16T10:31:28.352Z,9.20
2023-03-16T10:33:58.486Z,9.30
2023-03-16T10:36:30.191Z,9.30
2023-03-16T10:38:58.801Z,9.30
2023-03-16T10:41:29.943Z,9.30
2023-03-16T10:43:57.509Z,9.40
2023-03-16T10:46:25.814Z,9.40
2023-03-16T10:49:00.377Z,9.50
2023-03-16T10:51:45.676Z,9.50
2023-03-16T10:54:19.775Z,9.60
2023-03-16T10:56:46.715Z,9.60
2023-03-16T10:59:26.414Z,9.70
2023-03-16T11:01:54.022Z,9.70
2023-03-16T11:04:21.071Z,9.80
2023-03-16T11:06:55.448Z,9.80
2023-03-16T11:09:23.915Z,9.90
2023-03-16T11:11:51.251Z,9.90
2023-03-16T11:14:20.156Z,10.00
2023-03-16T11:17:10.516Z,10.00
2023-03-16T11:19:50.111Z,10.00
2023-03-16T11:22:17.802Z,10.00
2023-03-16T11:24:44.767Z,10.10
2023-03-16T11:27:19.979Z,10.10
2023-03-16T11:30:07.195Z,10.20
2023-03-16T11:32:38.202Z,10.20
2023-03-16T11:35:16.648Z,10.30
2023-03-16T11:38:00.508Z,10.40
2023-03-16T11:40:46.041Z,10.40
2023-03-16T11:43:25.423Z,10.50
2023-03-16T11:46:04.234Z,10.50
2023-03-16T11:48:40.234Z,10.50
2023-03-16T11:51:19.375Z,10.60
2023-03-16T11:54:04.390Z,10.60
2023-03-16T11:56:36.125Z,10.70
2023-03-16T11:59:09.040Z,10.80
2023-03-16T12:01:41.073Z,10.80
2023-03-16T12:04:25.220Z,10.90
2023-03-16T12:06:52.446Z,11.00
2023-03-16T12:09:35.007Z,11.00
2023-03-16T12:12:05.809Z,11.10
2023-03-16T12:14:35.160Z,11.10
2023-03-16T12:17:11.260Z,11.10
2023-03-16T12:19:53.630Z,11.20
2023-03-16T12:22:22.736Z,11.20
2023-03-16T12:24:50.300Z,11.30
2023-03-16T12:27:20.439Z,11.30
2023-03-16T12:30:11.497Z,11.30
2023-03-16T12:32:38.483Z,11.40
2023-03-16T12:35:13.320Z,11.50
2023-03-16T12:38:05.913Z,11.60
2023-03-16T12:40:35.533Z,11.60
2023-03-16T12:43:17.543Z,11.70
2023-03-16T12:45:47.978Z,11.80
2023-03-16T12:48:27.270Z,11.80
2023-03-16T12:50:55.935Z,11.90
2023-03-16T12:53:43.544Z,11.90
2023-03-16T12:56:12.183Z,11.90
2023-03-16T12:58:50.178Z,12.00
2023-03-16T13:01:18.760Z,12.00
2023-03-16T13:03:49.622Z,12.00
2023-03-16T13:06:18.205Z,12.00
2023-03-16T13:08:48.046Z,12.10
2023-03-16T13:11:16.277Z,12.10
2023-03-16T13:14:01.637Z,12.20
2023-03-16T13:16:33.105Z,12.20
2023-03-16T13:19:00.114Z,12.20
2023-03-16T13:21:36.271Z,12.30
2023-03-16T13:24:25.340Z,12.30
2023-03-16T13:26:54.082Z,12.40
2023-03-16T13:29:21.521Z,12.40
2023-03-16T13:31:48.848Z,12.50
2023-03-16T13:34:20.547Z,12.40
2023-03-16T13:36:50.019Z,12.50
2023-03-16T13:39:20.938Z,12.50
2023-03-16T13:42:18.363Z,12.60
2023-03-16T13:44:45.395Z,12.60
2023-03-16T13:47:16.817Z,12.60
2023-03-16T13:49:50.788Z,12.60
2023-03-16T13:52:17.913Z,12.60
2023-03-16T13:54:44.908Z,12.60
2023-03-16T13:57:12.555Z,12.60
2023-03-16T13:59:41.885Z,12.70
2023-03-16T14:02:17.348Z,12.70
2023-03-16T14:04:44.238Z,12.70
2023-03-16T14:07:16.877Z,12.70
2023-03-16T14:09:45.262Z,12.80
2023-03-16T14:12:16.255Z,12.80
2023-03-16T14:14:46.250Z,12.80
2023-03-16T14:17:15.868Z,12.80
2023-03-16T14:19:45.663Z,12.80
2023-03-16T14:22:13.666Z,12.80
2023-03-16T14:24:41.087Z,12.80
2023-03-16T14:27:17.048Z,12.90
2023-03-16T14:29:44.284Z,12.90
2023-03-16T14:32:23.293Z,12.90
2023-03-16T14:34:51.158Z,12.90
2023-03-16T14:37:19.303Z,12.90
2023-03-16T14:39:57.973Z,12.90
2023-03-16T14:42:30.225Z,13.00
2023-03-16T14:44:58.673Z,13.10
2023-03-16T14:47:29.390Z,13.00
2023-03-16T14:49:57.456Z,13.10
2023-03-16T14:52:27.229Z,13.10
2023-03-16T14:54:55.258Z,13.20
2023-03-16T14:57:22.388Z,13.00
2023-03-16T14:59:49.316Z,13.10
2023-03-16T15:02:25.139Z,13.10
2023-03-16T15:04:52.624Z,13.10
2023-03-16T15:07:25.179Z,13.10
2023-03-16T15:09:53.842Z,13.10
2023-03-16T15:12:21.585Z,13.20
2023-03-16T15:15:07.135Z,13.20
2023-03-16T15:17:34.038Z,13.20
2023-03-16T15:20:01.207Z,13.20
2023-03-16T15:22:29.893Z,13.30
2023-03-16T15:24:58.104Z,13.30
2023-03-16T15:27:26.220Z,13.30
2023-03-16T15:29:53.150Z,13.30
2023-03-16T15:32:20.161Z,13.40
2023-03-16T15:34:47.098Z,13.40
2023-03-16T15:37:17.413Z,13.40
2023-03-16T15:39:46.208Z,13.40
2023-03-16T15:42:14.648Z,13.40
2023-03-16T15:44:41.619Z,13.50
2023-03-16T15:47:09.186Z,13.50
2023-03-16T15:49:47.185Z,13.50
2023-03-16T15:52:34.956Z,13.50
2023-03-16T15:55:07.628Z,13.50
2023-03-16T15:57:35.480Z,13.50
2023-03-16T16:00:03.296Z,13.50
2023-03-16T16:02:31.205Z,13.50
2023-03-16T16:04:58.502Z,13.50
2023-03-16T16:07:25.467Z,13.50
2023-03-16T16:09:52.708Z,13.50
2023-03-16T16:12:21.384Z,13.50
2023-03-16T16:14:48.260Z,13.50
2023-03-16T16:17:36.497Z,13.50
2023-03-16T16:20:22.777Z,13.40
2023-03-16T16:22:51.835Z,13.50
2023-03-16T16:25:19.230Z,13.60
2023-03-16T16:27:46.862Z,13.50
2023-03-16T16:30:24.320Z,13.50
2023-03-16T16:32:52.207Z,13.50
2023-03-16T16:35:20.673Z,13.60
2023-03-16T16:37:48.255Z,13.50
2023-03-16T16:40:17.514Z,13.50
2023-03-16T16:42:45.551Z,13.50
2023-03-16T16:45:17.036Z,13.50
2023-03-16T16:47:44.450Z,13.40
2023-03-16T16:50:15.653Z,13.40
2023-03-16T16:52:42.830Z,13.40
2023-03-16T16:55:09.851Z,13.40
2023-03-16T16:57:37.001Z,13.40
2023-03-16T17:00:05.230Z,13.40
2023-03-16T17:02:40.424Z,13.30
2023-03-16T17:05:22.535Z,13.40
2023-03-16T17:07:50.200Z,13.30
2023-03-16T17:10:27.150Z,13.20
2023-03-16T17:12:54.765Z,13.10
2023-03-16T17:15:32.364Z,13.10
2023-03-16T17:18:03.111Z,13.00
2023-03-16T17:20:30.193Z,13.00
2023-03-16T17:22:58.604Z,12.90
2023-03-16T17:25:25.997Z,12.80
2023-03-16T17:27:54.933Z,12.80
2023-03-16T17:30:23.348Z,12.70
2023-03-16T17:32:51.017Z,12.70
2023-03-16T17:35:18.687Z,12.70
2023-03-16T17:37:47.754Z,12.60
2023-03-16T17:40:18.882Z,12.50
2023-03-16T17:42:46.743Z,12.50
2023-03-16T17:45:18.174Z,12.40
2023-03-16T17:47:45.132Z,12.30
2023-03-16T17:50:16.792Z,12.20
2023-03-16T17:52:43.708Z,12.20
2023-03-16T17:55:11.444Z,12.20
2023-03-16T17:57:38.616Z,12.20
2023-03-16T18:00:18.374Z,12.20
2023-03-16T18:02:50.026Z,12.10
2023-03-16T18:05:22.055Z,12.10
2023-03-16T18:07:49.334Z,12.00
2023-03-16T18:10:27.170Z,12.00
2023-03-16T18:12:59.405Z,11.90
2023-03-16T18:15:27.956Z,11.90
2023-03-16T18:17:55.383Z,11.80
2023-03-16T18:20:23.995Z,11.70
2023-03-16T18:22:50.912Z,11.70
2023-03-16T18:25:39.230Z,11.70
2023-03-16T18:28:07.731Z,11.60
2023-03-16T18:30:36.890Z,11.60
2023-03-16T18:33:05.213Z,11.60
2023-03-16T18:35:32.890Z,11.50
2023-03-16T18:38:00.142Z,11.50
2023-03-16T18:40:28.950Z,11.40
2023-03-16T18:42:56.019Z,11.30
2023-03-16T18:45:31.674Z,11.30
2023-03-16T18:47:58.987Z,11.20
2023-03-16T18:50:27.608Z,11.20
2023-03-16T18:52:55.201Z,11.10
2023-03-16T18:55:24.434Z,11.00
2023-03-16T18:57:52.828Z,11.00
2023-03-16T19:00:24.305Z,11.00
2023-03-16T19:02:56.142Z,11.00
2023-03-16T19:05:30.132Z,11.00
2023-03-16T19:07:57.285Z,11.00
2023-03-16T19:10:24.165Z,10.90
2023-03-16T19:12:51.351Z,10.80
2023-03-16T19:15:20.251Z,10.80
2023-03-16T19:17:47.729Z,10.80
2023-03-16T19:20:16.452Z,10.80
2023-03-16T19:22:44.447Z,10.70
2023-03-16T19:25:29.245Z,10.70
2023-03-16T19:27:56.695Z,10.70
2023-03-16T19:30:27.897Z,10.60
2023-03-16T19:32:55.959Z,10.60
2023-03-16T19:35:28.761Z,10.50
2023-03-16T19:38:01.098Z,10.50
2023-03-16T19:40:28.272Z,10.40
2023-03-16T19:42:55.277Z,10.40
2023-03-16T19:45:28.912Z,10.30
2023-03-16T19:47:56.110Z,10.30
2023-03-16T19:50:24.242Z,10.30
2023-03-16T19:52:51.398Z,10.20
2023-03-16T19:55:21.161Z,10.20
2023-03-16T19:57:49.233Z,10.20
2023-03-16T20:00:17.622Z,10.20
2023-03-16T20:02:45.240Z,10.20
2023-03-16T20:05:16.569Z,10.20
2023-03-16T20:07:43.501Z,10.10
2023-03-16T20:10:16.043Z,10.10
2023-03-16T20:12:43.067Z,10.10
2023-03-16T20:15:14.760Z,10.00
2023-03-16T20:17:43.223Z,10.00
2023-03-16T20:20:20.818Z,10.00
2023-03-16T20:22:47.792Z,9.90
2023-03-16T20:25:15.469Z,9.90
2023-03-16T20:27:42.784Z,9.90
2023-03-16T20:30:18.703Z,9.80
2023-03-16T20:32:46.304Z,9.70
2023-03-16T20:35:18.623Z,9.70
2023-03-16T20:37:45.757Z,9.70
2023-03-16T20:40:12.939Z,9.70
2023-03-16T20:42:40.409Z,9.70
2023-03-16T20:45:17.708Z,9.70
2023-03-16T20:47:44.869Z,9.70
2023-03-16T20:50:17.328Z,9.70
2023-03-16T20:52:44.521Z,9.70
2023-03-16T20:55:16.462Z,9.70
2023-03-16T20:57:43.712Z,9.70
2023-03-16T21:00:17.937Z,9.60
2023-03-16T21:02:45.674Z,9.60
2023-03-16T21:05:14.023Z,9.60
2023-03-16T21:07:41.859Z,9.50
2023-03-16T21:10:09.373Z,9.50
2023-03-16T21:12:39.320Z,9.40
2023-03-16T21:15:16.145Z,9.30
2023-03-16T21:17:43.670Z,9.20
2023-03-16T21:20:15.908Z,9.10
2023-03-16T21:22:43.098Z,9.20
2023-03-16T21:25:17.424Z,9.20
2023-03-16T21:27:44.414Z,9.20
2023-03-16T21:30:18.337Z,9.20
2023-03-16T21:32:45.280Z,9.10
2023-03-16T21:35:13.209Z,9.10
2023-03-16T21:37:40.973Z,9.10
2023-03-16T21:40:21.320Z,9.10
2023-03-16T21:42:48.928Z,9.10
2023-03-16T21:45:16.597Z,9.00
2023-03-16T21:47:43.981Z,8.90
2023-03-16T21:50:22.197Z,9.00
2023-03-16T21:52:50.138Z,8.90
2023-03-16T21:55:23.596Z,8.90
2023-03-16T21:57:51.112Z,8.80
2023-03-16T22:00:25.714Z,8.80
2023-03-16T22:02:54.229Z,8.80
2023-03-16T22:05:35.022Z,8.90
2023-03-16T22:08:06.980Z,8.80
2023-03-16T22:10:33.949Z,8.70
2023-03-16T22:13:02.116Z,8.70
2023-03-16T22:15:29.395Z,8.60
2023-03-16T22:17:56.731Z,8.60
2023-03-16T22:20:27.079Z,8.60
2023-03-16T22:22:57.562Z,8.70
2023-03-16T22:25:25.382Z,8.60
2023-03-16T22:27:52.434Z,8.60
2023-03-16T22:30:21.482Z,8.60
2023-03-16T22:32:50.234Z,8.60
2023-03-16T22:35:25.191Z,8.50
2023-03-16T22:37:52.699Z,8.40
2023-03-16T22:40:19.933Z,8.30
2023-03-16T22:42:46.911Z,8.30
2023-03-16T22:45:33.256Z,8.40
2023-03-16T22:48:02.243Z,8.60
2023-03-16T22:50:32.874Z,8.40
2023-03-16T22:53:00.802Z,8.40
2023-03-16T22:55:29.836Z,8.40
2023-03-16T22:58:02.272Z,8.40
2023-03-16T23:00:29.392Z,8.30
2023-03-16T23:02:57.503Z,8.30
2023-03-16T23:05:29.291Z,8.30
2023-03-16T23:07:59.735Z,8.30
2023-03-16T23:10:30.310Z,8.20
2023-03-16T23:12:59.494Z,8.20
2023-03-16T23:15:28.446Z,8.20
2023-03-16T23:17:55.868Z,8.20
2023-03-16T23:20:28.089Z,8.20
2023-03-16T23:22:55.371Z,8.20
2023-03-16T23:25:22.832Z,8.20
2023-03-16T23:27:51.336Z,8.10
2023-03-16T23:30:18.396Z,8.10
2023-03-16T23:32:45.405Z,8.10
2023-03-16T23:35:31.010Z,8.10
2023-03-16T23:37:58.204Z,8.10
2023-03-16T23:40:26.280Z,8.00
2023-03-16T23:42:54.234Z,7.90
2023-03-16T23:45:24.141Z,7.90
2023-03-16T23:47:52.336Z,7.80
2023-03-16T23:50:23.377Z,7.70
2023-03-16T23:52:50.329Z,7.70
2023-03-16T23:55:17.780Z,7.70
2023-03-16T23:57:44.980Z,7.70
